Time;durP1;ratioP1;P1;durP2;ratioP2;P2;SDS_P1;SDS_P2;PMS_P1;PMS_P2;Temp;Humidity;BMP_temperature;BMP_pressure;BME280_temperature;BME280_humidity;BME280_pressure;Samples;Min_cycle;Max_cycle;Signal;HPM_P1;HPM_P2
2021/08/07 00:02:23;;;;;;;1.25;0.60;;;17.70;59.00;;;;;;5025619;28;20026;-63
2021/08/07 00:04:56;;;;;;;1.90;0.70;;;17.70;58.20;;;;;;5030915;28;20496;-73
2021/08/07 00:07:26;;;;;;;2.17;0.60;;;17.80;58.00;;;;;;5030691;28;20056;-70
2021/08/07 00:09:54;;;;;;;1.33;0.70;;;17.80;58.00;;;;;;5013004;28;20152;-67
2021/08/07 00:12:22;;;;;;;0.68;0.50;;;17.90;58.80;;;;;;5026857;28;20464;-68
2021/08/07 00:14:49;;;;;;;0.60;0.60;;;18.00;57.50;;;;;;5030643;28;20018;-69
2021/08/07 00:17:17;;;;;;;1.85;0.55;;;18.10;58.80;;;;;;5031213;28;20045;-69
2021/08/07 00:19:44;;;;;;;2.45;1.10;;;18.10;58.00;;;;;;5031232;28;20021;-73
2021/08/07 00:22:12;;;;;;;0.70;0.70;;;18.20;56.80;;;;;;5028441;28;20029;-72
2021/08/07 00:24:40;;;;;;;0.70;0.50;;;18.20;57.50;;;;;;5032064;28;20080;-70
2021/08/07 00:27:08;;;;;;;3.65;0.70;;;18.20;57.40;;;;;;5030800;28;20028;-66
2021/08/07 00:29:35;;;;;;;1.13;0.70;;;18.30;57.30;;;;;;5025140;28;20029;-66
2021/08/07 00:32:04;;;;;;;1.00;0.50;;;18.40;57.80;;;;;;5025236;28;20072;-67
2021/08/07 00:34:31;;;;;;;4.03;1.00;;;18.50;56.60;;;;;;5031156;28;20141;-72
2021/08/07 00:37:03;;;;;;;0.88;0.60;;;18.50;56.70;;;;;;5031087;28;20052;-70
2021/08/07 00:39:31;;;;;;;1.77;0.70;;;18.50;57.60;;;;;;5026690;28;20036;-69
2021/08/07 00:41:59;;;;;;;3.47;1.10;;;18.60;56.40;;;;;;5027493;28;20391;-71
2021/08/07 00:44:26;;;;;;;1.83;0.70;;;18.60;56.90;;;;;;5031204;28;20032;-70
2021/08/07 00:46:53;;;;;;;1.30;0.75;;;18.70;56.00;;;;;;5021229;28;20110;-70
2021/08/07 00:49:21;;;;;;;1.55;0.60;;;18.80;57.50;;;;;;5030677;28;20029;-68
2021/08/07 00:51:49;;;;;;;1.20;0.60;;;18.80;56.10;;;;;;5013203;28;20064;-70
2021/08/07 00:54:17;;;;;;;2.75;0.60;;;18.90;55.50;;;;;;5030499;28;20061;-74
2021/08/07 00:56:44;;;;;;;0.70;0.50;;;19.00;56.00;;;;;;5030735;28;20603;-71
2021/08/07 00:59:12;;;;;;;2.95;0.88;;;19.10;56.30;;;;;;5030739;28;20025;-72
2021/08/07 01:02:21;;;;;;;6.03;0.93;;;19.00;57.10;;;;;;5030061;28;21099;-69
2021/08/07 01:04:51;;;;;;;1.00;0.65;;;19.10;55.20;;;;;;5023843;28;20387;-72
2021/08/07 01:07:27;;;;;;;6.13;0.60;;;19.20;56.10;;;;;;5034687;28;20049;-71
2021/08/07 01:10:13;;;;;;;0.68;0.50;;;19.30;56.40;;;;;;5030030;28;20025;-71
2021/08/07 01:12:46;;;;;;;4.55;0.65;;;19.40;55.80;;;;;;5030938;28;20034;-72
2021/08/07 01:15:22;;;;;;;3.60;0.50;;;19.50;54.80;;;;;;5012359;28;20356;-73
2021/08/07 01:17:53;;;;;;;3.08;0.50;;;19.40;56.10;;;;;;5030036;28;20022;-72
2021/08/07 01:20:37;;;;;;;1.67;0.70;;;19.60;56.10;;;;;;5029998;28;20025;-71
2021/08/07 01:23:20;;;;;;;4.15;0.50;;;19.60;54.50;;;;;;5030060;28;20483;-68
2021/08/07 01:26:05;;;;;;;;;;;19.60;55.70;;;;;;5030414;28;20365;-74
2021/08/07 01:28:35;;;;;;;2.78;0.90;;;19.60;55.20;;;;;;5030015;28;19905;-67
2021/08/07 01:31:04;;;;;;;1.60;0.60;;;19.70;56.10;;;;;;5030606;28;20030;-68
2021/08/07 01:33:32;;;;;;;2.55;1.13;;;19.70;55.70;;;;;;5029784;28;20067;-69
2021/08/07 01:36:02;;;;;;;3.88;0.60;;;19.70;53.70;;;;;;5030505;28;20504;-68
2021/08/07 01:38:31;;;;;;;1.90;0.80;;;19.80;54.70;;;;;;5028230;28;20395;-67
2021/08/07 01:40:58;;;;;;;1.45;0.80;;;19.90;54.70;;;;;;5029220;28;20039;-60
2021/08/07 01:43:26;;;;;;;2.65;0.80;;;19.90;54.40;;;;;;5029462;28;20649;-60
2021/08/07 01:45:53;;;;;;;1.75;0.70;;;19.90;52.60;;;;;;5029560;28;20039;-61
2021/08/07 01:48:32;;;;;;;1.67;0.90;;;19.90;53.10;;;;;;5029399;28;20030;-63
2021/08/07 01:51:13;;;;;;;3.03;0.60;;;19.90;51.50;;;;;;5029171;28;20087;-64
2021/08/07 01:53:43;;;;;;;3.55;0.93;;;20.00;51.70;;;;;;5029113;28;20029;-60
2021/08/07 01:56:12;;;;;;;3.67;0.85;;;20.10;50.50;;;;;;5029582;28;20021;-60
2021/08/07 01:58:43;;;;;;;2.92;0.60;;;20.10;50.60;;;;;;5029626;28;20021;-62
2021/08/07 02:01:12;;;;;;;6.70;1.05;;;20.10;50.30;;;;;;5029145;28;20530;-72
2021/08/07 02:03:40;;;;;;;3.03;1.00;;;20.00;53.00;;;;;;5029589;28;21606;-73
2021/08/07 02:06:08;;;;;;;3.42;0.60;;;19.90;54.10;;;;;;5029243;28;20025;-72
2021/08/07 02:08:39;;;;;;;6.50;0.60;;;19.80;54.60;;;;;;5028883;28;20026;-67
2021/08/07 02:11:06;;;;;;;3.70;1.00;;;19.90;55.00;;;;;;5029622;28;20041;-69
2021/08/07 02:13:35;;;;;;;1.20;0.63;;;20.00;52.70;;;;;;5011295;28;20041;-71
2021/08/07 02:16:03;;;;;;;1.55;0.70;;;20.10;52.50;;;;;;5029141;28;20021;-71
2021/08/07 02:18:33;;;;;;;2.15;0.70;;;20.10;54.60;;;;;;5028979;28;20105;-71
2021/08/07 02:21:01;;;;;;;6.75;0.70;;;20.30;52.50;;;;;;5028644;28;20021;-68
2021/08/07 02:23:29;;;;;;;2.42;0.77;;;20.40;53.30;;;;;;5028962;28;20095;-71
2021/08/07 02:26:01;;;;;;;2.42;1.05;;;20.50;53.90;;;;;;5028937;28;20357;-69
2021/08/07 02:28:29;;;;;;;4.53;0.88;;;20.50;53.30;;;;;;5029021;28;20025;-70
2021/08/07 02:30:59;;;;;;;2.10;1.00;;;20.60;53.10;;;;;;5028877;28;20418;-67
2021/08/07 02:33:28;;;;;;;2.67;0.75;;;20.60;51.90;;;;;;5028413;28;20028;-73
2021/08/07 02:35:58;;;;;;;4.78;1.23;;;20.50;53.60;;;;;;5028664;28;20072;-70
2021/08/07 02:38:30;;;;;;;2.55;0.70;;;20.60;54.40;;;;;;5028532;28;20113;-68
2021/08/07 02:41:02;;;;;;;2.08;0.80;;;20.60;51.20;;;;;;5028978;28;20140;-73
2021/08/07 02:43:30;;;;;;;0.73;0.60;;;20.70;53.00;;;;;;5028592;28;20506;-68
2021/08/07 02:46:00;;;;;;;4.57;1.33;;;20.90;51.40;;;;;;5028484;28;20284;-70
2021/08/07 02:48:28;;;;;;;2.42;0.60;;;21.00;52.50;;;;;;5028670;28;20025;-71
2021/08/07 02:50:56;;;;;;;1.33;0.82;;;21.10;52.70;;;;;;5028230;28;20511;-74
2021/08/07 02:53:25;;;;;;;4.22;0.77;;;21.10;52.40;;;;;;5027719;28;20037;-75
2021/08/07 02:55:52;;;;;;;11.40;1.33;;;21.10;50.50;;;;;;5028534;28;20025;-72
2021/08/07 02:58:21;;;;;;;5.32;0.57;;;21.20;50.50;;;;;;5027817;28;20111;-68
2021/08/07 03:00:48;;;;;;;1.00;0.60;;;21.20;51.40;;;;;;5028145;28;20029;-72
2021/08/07 03:03:16;;;;;;;0.95;0.60;;;21.30;50.10;;;;;;5028550;28;20029;-71
2021/08/07 03:05:43;;;;;;;1.85;0.80;;;21.30;52.80;;;;;;5028102;28;20662;-71
2021/08/07 03:08:11;;;;;;;6.95;0.65;;;21.30;52.40;;;;;;5026310;28;20025;-75
2021/08/07 03:10:39;;;;;;;4.43;0.85;;;21.40;52.80;;;;;;5028066;28;20546;-74
2021/08/07 03:13:07;;;;;;;4.35;1.40;;;21.40;52.40;;;;;;5028381;28;20064;-74
2021/08/07 03:15:34;;;;;;;2.45;1.17;;;21.50;50.00;;;;;;5027619;28;20021;-72
2021/08/07 03:18:01;;;;;;;3.22;1.67;;;21.50;50.50;;;;;;5028588;28;20064;-73
2021/08/07 03:20:32;;;;;;;7.85;2.88;;;21.60;52.70;;;;;;5029572;28;20108;-71
2021/08/07 03:23:11;;;;;;;5.20;2.90;;;21.50;52.90;;;;;;5027577;28;20025;-67
2021/08/07 03:25:46;;;;;;;6.38;2.97;;;21.50;51.20;;;;;;5013542;28;20079;-72
2021/08/07 03:28:13;;;;;;;6.65;3.00;;;21.40;53.20;;;;;;5028912;28;20034;-71
2021/08/07 03:30:40;;;;;;;4.40;2.00;;;21.50;51.60;;;;;;5019253;28;20368;-70
2021/08/07 03:33:08;;;;;;;5.85;3.05;;;21.50;49.70;;;;;;5026815;28;20026;-67
2021/08/07 03:35:39;;;;;;;10.45;5.13;;;21.60;52.90;;;;;;5020501;28;20077;-69
2021/08/07 03:38:06;;;;;;;13.68;6.30;;;21.70;49.60;;;;;;5025582;28;20390;-70
2021/08/07 03:40:34;;;;;;;14.10;6.57;;;21.80;52.40;;;;;;5026141;28;20057;-66
2021/08/07 03:43:01;;;;;;;13.48;6.80;;;21.80;51.40;;;;;;5026544;28;20041;-69
2021/08/07 03:45:28;;;;;;;18.45;8.38;;;21.90;50.90;;;;;;5025329;28;20095;-64
2021/08/07 03:47:56;;;;;;;17.05;6.28;;;22.00;52.60;;;;;;5022393;28;20442;-67
2021/08/07 03:50:24;;;;;;;19.90;7.85;;;22.10;51.00;;;;;;5029970;28;20037;-60
2021/08/07 03:52:51;;;;;;;19.55;8.32;;;22.10;49.70;;;;;;5026635;28;21257;-62
2021/08/07 03:55:19;;;;;;;20.27;8.43;;;22.10;52.10;;;;;;5026234;28;20107;-61
2021/08/07 03:57:53;;;;;;;13.25;6.45;;;22.10;52.40;;;;;;5021871;28;20180;-69
2021/08/07 04:00:23;;;;;;;15.43;6.82;;;22.20;49.90;;;;;;5025593;28;20021;-68
2021/08/07 04:02:51;;;;;;;15.98;7.35;;;22.20;52.10;;;;;;5026223;28;20025;-64
2021/08/07 04:05:18;;;;;;;14.38;6.30;;;22.20;52.10;;;;;;5030325;28;20032;-65
2021/08/07 04:07:46;;;;;;;9.07;4.90;;;22.40;48.80;;;;;;5027616;28;20042;-62
2021/08/07 04:10:16;;;;;;;12.77;6.35;;;22.40;48.20;;;;;;5025887;28;20171;-66
2021/08/07 04:12:44;;;;;;;10.80;5.07;;;22.30;51.60;;;;;;5034516;28;20029;-64
2021/08/07 04:15:12;;;;;;;14.02;4.75;;;22.50;50.10;;;;;;5028542;28;20033;-63
2021/08/07 04:17:40;;;;;;;13.45;5.45;;;22.50;49.50;;;;;;5024701;28;20106;-61
2021/08/07 04:20:09;;;;;;;10.07;4.78;;;22.50;50.70;;;;;;5027565;28;20064;-66
2021/08/07 04:22:37;;;;;;;16.67;6.65;;;22.60;49.80;;;;;;5030040;28;20021;-69
2021/08/07 04:25:07;;;;;;;14.60;6.28;;;22.60;51.10;;;;;;5027921;28;20060;-68
2021/08/07 04:27:34;;;;;;;8.00;3.85;;;22.70;51.20;;;;;;5025220;28;20139;-69
2021/08/07 04:30:03;;;;;;;9.98;4.95;;;22.70;48.80;;;;;;5032312;28;20375;-62
2021/08/07 04:32:30;;;;;;;10.40;4.60;;;22.80;49.80;;;;;;5030562;28;20146;-62
2021/08/07 04:34:58;;;;;;;12.05;5.43;;;22.70;50.10;;;;;;5029453;28;20050;-65
2021/08/07 04:37:25;;;;;;;7.70;4.60;;;23.00;50.10;;;;;;5028970;28;20141;-66
2021/08/07 04:39:53;;;;;;;7.15;4.15;;;22.80;48.40;;;;;;5031137;28;20025;-69
2021/08/07 04:42:20;;;;;;;9.80;4.45;;;22.90;48.70;;;;;;5030975;28;20170;-68
2021/08/07 04:44:48;;;;;;;7.50;3.60;;;22.90;49.90;;;;;;5029233;28;20478;-65
2021/08/07 04:47:15;;;;;;;10.90;4.88;;;22.90;49.10;;;;;;5030242;28;20033;-68
2021/08/07 04:49:42;;;;;;;7.97;4.22;;;22.80;50.30;;;;;;5030646;28;20036;-63
2021/08/07 04:52:10;;;;;;;9.52;4.05;;;22.90;50.30;;;;;;5030608;28;20484;-69
2021/08/07 04:54:37;;;;;;;7.60;3.63;;;22.80;50.00;;;;;;5030874;28;20034;-72
2021/08/07 04:57:05;;;;;;;5.60;3.42;;;22.90;50.10;;;;;;5030164;28;20110;-64
2021/08/07 04:59:32;;;;;;;9.63;4.15;;;22.90;49.80;;;;;;5030922;28;20147;-68
2021/08/07 05:02:00;;;;;;;8.20;4.00;;;22.90;50.20;;;;;;5012918;28;20064;-69
2021/08/07 05:04:27;;;;;;;7.75;3.75;;;22.80;50.40;;;;;;5031091;28;20036;-69
2021/08/07 05:06:54;;;;;;;6.95;3.63;;;22.60;50.80;;;;;;5030801;28;20483;-66
2021/08/07 05:09:22;;;;;;;5.97;3.25;;;22.60;49.80;;;;;;5030414;28;20061;-65
2021/08/07 05:11:49;;;;;;;8.60;4.43;;;22.60;50.50;;;;;;5030084;28;20040;-71
2021/08/07 05:14:16;;;;;;;6.88;3.40;;;22.50;50.60;;;;;;5020801;28;20033;-65
2021/08/07 05:16:44;;;;;;;6.35;2.78;;;22.60;51.00;;;;;;5029164;28;20025;-67
2021/08/07 05:19:11;;;;;;;7.18;3.50;;;22.70;48.10;;;;;;5026014;28;20380;-66
2021/08/07 05:21:38;;;;;;;6.95;3.47;;;22.70;50.30;;;;;;5031190;28;20040;-66
2021/08/07 05:24:06;;;;;;;8.85;4.38;;;22.80;49.10;;;;;;5028708;28;20025;-71
2021/08/07 05:26:33;;;;;;;6.53;3.78;;;22.90;50.70;;;;;;5029246;28;20078;-74
2021/08/07 05:29:01;;;;;;;5.43;2.65;;;22.80;50.00;;;;;;5030168;28;20029;-72
2021/08/07 05:31:28;;;;;;;6.47;3.90;;;23.00;47.70;;;;;;5028017;28;20034;-70
2021/08/07 05:33:55;;;;;;;6.80;4.03;;;22.80;50.00;;;;;;5031327;28;20022;-65
2021/08/07 05:36:23;;;;;;;7.85;4.25;;;22.90;48.60;;;;;;5015953;28;20416;-70
2021/08/07 05:38:50;;;;;;;6.07;4.18;;;22.90;50.60;;;;;;5031331;28;20404;-69
2021/08/07 05:41:17;;;;;;;8.13;4.50;;;22.90;49.50;;;;;;5026062;28;20057;-65
2021/08/07 05:43:45;;;;;;;7.32;4.20;;;22.90;50.40;;;;;;5025527;28;20120;-72
2021/08/07 05:46:12;;;;;;;8.68;5.55;;;22.90;49.30;;;;;;5027983;28;20525;-64
2021/08/07 05:48:40;;;;;;;9.05;5.68;;;23.00;48.10;;;;;;5028897;28;20052;-65
2021/08/07 05:51:07;;;;;;;7.45;4.50;;;23.00;50.40;;;;;;5024710;28;20147;-66
2021/08/07 05:53:34;;;;;;;7.47;4.93;;;23.10;49.40;;;;;;5027814;28;20028;-66
2021/08/07 05:56:02;;;;;;;7.68;5.28;;;23.20;49.90;;;;;;5018443;28;20029;-68
2021/08/07 05:58:32;;;;;;;10.80;6.15;;;23.20;48.80;;;;;;5028849;28;20030;-66
2021/08/07 06:01:00;;;;;;;8.70;6.18;;;23.20;49.50;;;;;;5024437;28;20036;-67
2021/08/07 06:03:27;;;;;;;10.32;7.00;;;23.20;49.40;;;;;;5012997;28;20497;-68
2021/08/07 06:05:55;;;;;;;10.25;4.60;;;23.10;50.30;;;;;;5029076;28;20036;-68
2021/08/07 06:08:22;;;;;;;8.70;5.93;;;23.20;47.60;;;;;;5024888;28;20064;-72
2021/08/07 06:10:49;;;;;;;8.73;6.10;;;23.20;48.60;;;;;;5025329;28;20618;-68
2021/08/07 06:13:17;;;;;;;7.25;5.60;;;23.10;50.80;;;;;;5028492;28;20041;-67
2021/08/07 06:15:44;;;;;;;8.35;6.43;;;23.00;49.10;;;;;;5034210;28;20070;-64
2021/08/07 06:18:12;;;;;;;14.68;7.50;;;22.80;50.20;;;;;;5028381;28;20499;-66
2021/08/07 06:20:40;;;;;;;7.03;5.35;;;22.70;50.60;;;;;;5026970;28;20090;-63
2021/08/07 06:23:07;;;;;;;9.48;4.70;;;22.50;51.00;;;;;;5026293;28;20595;-67
2021/08/07 06:25:35;;;;;;;9.10;4.38;;;22.40;48.50;;;;;;5023828;28;20395;-63
2021/08/07 06:28:05;;;;;;;7.20;4.35;;;22.30;48.40;;;;;;5028348;28;20387;-63
2021/08/07 06:30:33;;;;;;;5.18;3.78;;;22.10;50.30;;;;;;5024007;28;20022;-65
2021/08/07 06:33:01;;;;;;;6.22;4.07;;;21.80;51.30;;;;;;5023475;28;20445;-69
2021/08/07 06:35:28;;;;;;;6.13;4.47;;;21.70;52.30;;;;;;5029932;28;20033;-65
2021/08/07 06:37:55;;;;;;;7.18;4.55;;;21.40;51.10;;;;;;5028577;28;20033;-67
2021/08/07 06:40:23;;;;;;;6.18;4.60;;;21.20;52.10;;;;;;5028013;28;20546;-68
2021/08/07 06:42:50;;;;;;;5.72;4.20;;;21.20;53.20;;;;;;5024396;28;20421;-65
2021/08/07 06:45:18;;;;;;;5.30;3.80;;;21.00;53.20;;;;;;5029593;28;20078;-66
2021/08/07 06:47:45;;;;;;;6.65;4.20;;;20.80;54.60;;;;;;5027814;28;20114;-67
2021/08/07 06:50:13;;;;;;;5.60;3.97;;;20.70;53.10;;;;;;5028384;28;20026;-66
2021/08/07 06:52:41;;;;;;;12.60;5.18;;;20.60;55.60;;;;;;5023951;28;20133;-65
2021/08/07 06:55:09;;;;;;;7.30;4.25;;;20.50;56.50;;;;;;5027022;28;20025;-64
2021/08/07 06:57:41;;;;;;;7.35;5.15;;;20.30;56.40;;;;;;5027463;28;20472;-61
2021/08/07 07:00:11;;;;;;;7.57;4.32;;;20.10;55.90;;;;;;5028034;28;20040;-67
2021/08/07 07:02:39;;;;;;;6.57;4.22;;;20.10;55.10;;;;;;5025540;28;20034;-68
2021/08/07 07:05:07;;;;;;;7.50;4.30;;;20.00;57.30;;;;;;5026830;28;20029;-66
2021/08/07 07:07:36;;;;;;;5.30;3.40;;;19.90;56.60;;;;;;5026565;28;20022;-69
2021/08/07 07:10:07;;;;;;;8.43;3.92;;;19.80;55.90;;;;;;5028147;28;20032;-68
2021/08/07 07:12:35;;;;;;;5.05;3.63;;;19.80;56.30;;;;;;5025822;28;20051;-62
2021/08/07 07:15:02;;;;;;;5.57;3.13;;;19.70;55.60;;;;;;5025402;28;20599;-70
2021/08/07 07:17:29;;;;;;;8.93;3.28;;;19.70;55.60;;;;;;5027045;28;20033;-66
2021/08/07 07:19:58;;;;;;;7.78;4.45;;;19.60;55.50;;;;;;5027312;28;20547;-64
2021/08/07 07:22:25;;;;;;;6.65;3.33;;;19.50;57.40;;;;;;5025470;28;20538;-67
2021/08/07 07:24:53;;;;;;;5.22;3.80;;;19.50;58.10;;;;;;5033444;28;20442;-64
2021/08/07 07:27:20;;;;;;;6.07;3.17;;;19.40;59.00;;;;;;5026663;28;20084;-64
2021/08/07 07:29:48;;;;;;;4.05;3.42;;;19.30;58.00;;;;;;5027203;28;20022;-66
2021/08/07 07:32:15;;;;;;;5.45;3.47;;;19.20;57.10;;;;;;5023477;28;20108;-70
2021/08/07 07:34:43;;;;;;;4.03;2.90;;;19.20;58.60;;;;;;5025778;28;20037;-67
2021/08/07 07:37:11;;;;;;;10.05;3.72;;;19.10;56.90;;;;;;5026751;28;20431;-69
2021/08/07 07:39:38;;;;;;;5.53;3.08;;;19.10;59.30;;;;;;5028134;28;20055;-69
2021/08/07 07:42:05;;;;;;;5.55;2.88;;;19.00;59.90;;;;;;5022245;28;20036;-66
2021/08/07 07:44:33;;;;;;;5.63;2.85;;;19.00;58.70;;;;;;5031171;28;20025;-65
2021/08/07 07:47:00;;;;;;;3.50;3.08;;;18.90;57.60;;;;;;5031671;28;20021;-66
2021/08/07 07:49:27;;;;;;;3.38;2.42;;;18.90;58.10;;;;;;5031524;28;20022;-67
2021/08/07 07:51:55;;;;;;;4.68;2.92;;;18.80;58.10;;;;;;5026922;28;20133;-69
2021/08/07 07:54:22;;;;;;;11.25;3.88;;;18.80;59.80;;;;;;5031251;28;20064;-65
2021/08/07 07:56:50;;;;;;;9.52;3.08;;;18.80;59.20;;;;;;5031933;28;20108;-66
2021/08/07 07:59:17;;;;;;;7.20;3.20;;;18.70;58.80;;;;;;5031704;28;20115;-69
2021/08/07 08:01:48;;;;;;;4.22;3.00;;;18.60;59.10;;;;;;5026823;28;20038;-66
2021/08/07 08:04:15;;;;;;;5.07;2.80;;;18.60;59.10;;;;;;5031354;28;20026;-68
2021/08/07 08:06:42;;;;;;;3.72;2.83;;;18.60;60.00;;;;;;5033832;28;20581;-71
2021/08/07 08:09:10;;;;;;;2.95;2.30;;;18.50;59.30;;;;;;5029850;28;20569;-70
2021/08/07 08:11:37;;;;;;;4.40;2.90;;;18.50;58.90;;;;;;5030926;28;20056;-68
2021/08/07 08:14:05;;;;;;;3.50;2.80;;;18.50;60.20;;;;;;5031018;28;20018;-68
2021/08/07 08:16:32;;;;;;;3.90;2.70;;;18.40;60.10;;;;;;5031908;28;20022;-64
2021/08/07 08:18:59;;;;;;;3.90;3.00;;;18.40;60.20;;;;;;5031474;28;20052;-66
2021/08/07 08:21:27;;;;;;;3.25;2.47;;;18.30;59.70;;;;;;5026894;28;20478;-63
2021/08/07 08:23:54;;;;;;;3.38;2.67;;;18.30;59.40;;;;;;5027206;28;20044;-66
2021/08/07 08:26:22;;;;;;;3.67;2.85;;;18.30;60.20;;;;;;5031735;28;20108;-68
2021/08/07 08:28:50;;;;;;;4.50;2.83;;;18.20;59.90;;;;;;5031081;28;20029;-70
2021/08/07 08:31:18;;;;;;;5.93;2.70;;;18.20;59.80;;;;;;5027202;28;21192;-70
2021/08/07 08:33:48;;;;;;;3.05;2.58;;;18.20;59.90;;;;;;5032797;28;20376;-73
2021/08/07 08:36:16;;;;;;;4.82;2.85;;;18.10;60.00;;;;;;5032741;28;20049;-67
2021/08/07 08:38:43;;;;;;;4.90;2.90;;;18.10;60.50;;;;;;5031064;28;20551;-66
2021/08/07 08:41:11;;;;;;;4.75;3.15;;;18.10;60.30;;;;;;5026339;28;20029;-70
2021/08/07 08:43:39;;;;;;;4.32;2.80;;;18.10;59.90;;;;;;5029007;28;20030;-69
2021/08/07 08:46:06;;;;;;;4.78;2.80;;;18.00;60.20;;;;;;5030453;28;20040;-66
2021/08/07 08:48:38;;;;;;;3.65;2.33;;;18.00;60.00;;;;;;5029200;28;20384;-72
2021/08/07 08:51:08;;;;;;;5.78;3.15;;;18.00;60.30;;;;;;5022798;28;20229;-66
2021/08/07 08:53:44;;;;;;;4.32;2.50;;;18.00;60.10;;;;;;5028381;28;20087;-67
2021/08/07 08:56:12;;;;;;;4.07;2.40;;;17.90;60.10;;;;;;5027165;28;20077;-66
2021/08/07 08:58:40;;;;;;;7.10;2.70;;;17.90;60.80;;;;;;5031595;28;20480;-66
2021/08/07 09:01:09;;;;;;;4.50;2.67;;;17.90;60.60;;;;;;5030718;28;20778;-72
2021/08/07 09:03:37;;;;;;;5.70;2.80;;;17.90;60.70;;;;;;5027905;28;20021;-75
2021/08/07 09:06:06;;;;;;;5.90;2.78;;;17.90;59.70;;;;;;5027712;28;20025;-72
2021/08/07 09:08:33;;;;;;;3.45;2.88;;;17.80;60.30;;;;;;5027814;28;20502;-74
2021/08/07 09:11:22;;;;;;;5.65;3.53;;;17.80;60.60;;;;;;5025352;28;20369;-69
2021/08/07 09:13:49;;;;;;;5.72;3.10;;;17.70;61.30;;;;;;5008078;28;20029;-69
2021/08/07 09:16:16;;;;;;;5.03;3.28;;;17.70;61.30;;;;;;5031362;28;20025;-70
2021/08/07 09:18:44;;;;;;;5.57;3.22;;;17.70;61.10;;;;;;5035397;28;20036;-72
2021/08/07 09:21:14;;;;;;;4.03;2.80;;;17.70;61.00;;;;;;5026627;28;20079;-74
2021/08/07 09:23:42;;;;;;;4.28;2.70;;;17.70;60.90;;;;;;5029985;28;20084;-68
2021/08/07 09:26:24;;;;;;;4.18;2.70;;;17.70;60.90;;;;;;5029815;28;20040;-65
2021/08/07 09:28:57;;;;;;;4.03;2.87;;;17.60;61.20;;;;;;5028152;28;21223;-69
2021/08/07 09:31:26;;;;;;;3.83;2.25;;;17.60;61.10;;;;;;5006862;28;20551;-70
2021/08/07 09:34:20;;;;;;;4.35;2.70;;;17.60;60.00;;;;;;5029169;28;20547;-73
2021/08/07 09:36:53;;;;;;;3.75;2.90;;;17.60;61.10;;;;;;5025872;28;20061;-67
2021/08/07 09:39:41;;;;;;;4.90;2.75;;;17.60;61.30;;;;;;5027987;28;20025;-71
2021/08/07 09:42:09;;;;;;;4.22;3.28;;;17.50;61.10;;;;;;5026628;28;20459;-69
2021/08/07 09:44:37;;;;;;;2.92;2.50;;;17.50;60.90;;;;;;5030868;28;20125;-71
2021/08/07 09:47:10;;;;;;;3.20;2.28;;;17.50;61.10;;;;;;5029461;28;20523;-66
2021/08/07 09:49:45;;;;;;;4.50;2.20;;;17.40;61.10;;;;;;5029358;28;20022;-65
2021/08/07 09:52:12;;;;;;;3.53;2.10;;;17.50;61.40;;;;;;5024038;28;20071;-70
2021/08/07 09:54:45;;;;;;;4.53;2.75;;;17.40;61.10;;;;;;5031834;28;20664;-73
2021/08/07 09:57:35;;;;;;;3.28;2.40;;;17.40;60.90;;;;;;5033358;28;20023;-66
2021/08/07 10:00:03;;;;;;;3.85;2.45;;;17.40;61.50;;;;;;5019095;28;20496;-70
2021/08/07 10:02:35;;;;;;;3.28;2.22;;;17.30;61.30;;;;;;5027322;28;20033;-70
2021/08/07 10:05:07;;;;;;;4.32;2.22;;;17.30;61.80;;;;;;5033273;28;20052;-64
2021/08/07 10:07:34;;;;;;;3.35;2.25;;;17.30;61.80;;;;;;5027543;28;20357;-69
2021/08/07 10:10:02;;;;;;;3.40;2.50;;;17.30;61.50;;;;;;5031848;28;20109;-72
2021/08/07 10:12:30;;;;;;;4.00;2.05;;;17.30;61.80;;;;;;5027780;28;20655;-71
2021/08/07 10:14:57;;;;;;;3.60;2.15;;;17.20;61.90;;;;;;5028507;28;20033;-69
2021/08/07 10:17:26;;;;;;;3.72;2.28;;;17.20;61.80;;;;;;5029235;28;20104;-67
2021/08/07 10:19:54;;;;;;;3.15;1.88;;;17.20;62.20;;;;;;5027392;28;20021;-63
2021/08/07 10:22:21;;;;;;;3.28;2.30;;;17.10;61.90;;;;;;5026201;28;20075;-69
2021/08/07 10:24:49;;;;;;;2.55;1.67;;;17.10;62.20;;;;;;5032315;28;20037;-67
2021/08/07 10:27:19;;;;;;;3.03;2.00;;;17.10;61.90;;;;;;5030940;28;20018;-71
2021/08/07 10:29:50;;;;;;;2.38;1.98;;;17.10;62.10;;;;;;5032002;28;20044;-70
2021/08/07 10:32:18;;;;;;;3.85;2.03;;;17.00;62.10;;;;;;5025569;28;20079;-71
2021/08/07 10:34:50;;;;;;;2.70;1.88;;;17.00;62.10;;;;;;5031152;28;20406;-67
2021/08/07 10:37:17;;;;;;;2.55;1.77;;;17.00;62.20;;;;;;5028692;28;20040;-73
2021/08/07 10:39:45;;;;;;;3.17;1.90;;;17.00;62.30;;;;;;5029193;28;20479;-72
2021/08/07 10:42:17;;;;;;;3.78;1.67;;;17.00;61.80;;;;;;5029138;28;20052;-72
2021/08/07 10:44:46;;;;;;;3.20;1.70;;;17.00;62.20;;;;;;5026915;28;20026;-66
2021/08/07 10:47:33;;;;;;;2.75;1.75;;;17.00;62.30;;;;;;5027369;28;20280;-67
2021/08/07 10:50:01;;;;;;;3.05;2.00;;;16.90;62.00;;;;;;5025094;28;20036;-71
2021/08/07 10:52:28;;;;;;;2.33;1.40;;;16.90;62.10;;;;;;5023013;28;20460;-71
2021/08/07 10:54:56;;;;;;;2.42;1.73;;;16.90;62.20;;;;;;5031551;28;20430;-70
2021/08/07 10:57:40;;;;;;;3.28;2.13;;;16.90;62.10;;;;;;5027892;28;20033;-67
2021/08/07 11:00:16;;;;;;;2.08;1.67;;;16.90;61.90;;;;;;5024416;28;20031;-68
2021/08/07 11:02:45;;;;;;;2.45;1.92;;;16.90;62.30;;;;;;5022751;28;20143;-67
2021/08/07 11:05:13;;;;;;;3.28;1.83;;;16.90;62.10;;;;;;5027917;28;20025;-70
2021/08/07 11:07:40;;;;;;;3.15;1.98;;;16.90;62.30;;;;;;5027308;28;20155;-68
2021/08/07 11:10:16;;;;;;;2.10;1.90;;;16.90;62.10;;;;;;5027870;28;20048;-70
2021/08/07 11:12:45;;;;;;;2.60;1.65;;;16.90;62.00;;;;;;5024489;28;20025;-67
2021/08/07 11:15:15;;;;;;;2.80;1.83;;;16.90;62.10;;;;;;5031217;28;20057;-68
2021/08/07 11:17:46;;;;;;;2.83;1.70;;;16.90;62.00;;;;;;5028197;28;20026;-71
2021/08/07 11:20:34;;;;;;;2.95;1.90;;;16.90;62.10;;;;;;5028393;28;20761;-74
2021/08/07 11:23:01;;;;;;;1.95;1.60;;;16.80;62.10;;;;;;5022968;28;20033;-70
2021/08/07 11:25:45;;;;;;;2.03;1.60;;;16.80;62.10;;;;;;5031228;28;20491;-69
2021/08/07 11:28:13;;;;;;;2.85;1.63;;;16.80;62.40;;;;;;5025172;28;20029;-68
2021/08/07 11:30:41;;;;;;;2.95;1.80;;;16.80;62.60;;;;;;5026618;28;20071;-68
2021/08/07 11:33:12;;;;;;;2.17;1.77;;;16.80;62.40;;;;;;5025223;28;20561;-67
2021/08/07 11:35:41;;;;;;;1.98;1.60;;;16.80;62.30;;;;;;5021462;28;20573;-69
2021/08/07 11:38:19;;;;;;;1.95;1.60;;;16.80;62.40;;;;;;5027452;28;20426;-70
2021/08/07 11:40:47;;;;;;;3.38;2.00;;;16.80;62.30;;;;;;5004272;28;20419;-73
2021/08/07 11:43:25;;;;;;;2.45;1.73;;;16.80;62.20;;;;;;5028053;28;20029;-71
2021/08/07 11:46:01;;;;;;;1.67;1.27;;;16.80;62.20;;;;;;5028733;28;20092;-68
2021/08/07 11:48:31;;;;;;;1.83;1.40;;;16.80;62.40;;;;;;5032235;28;20032;-66
2021/08/07 11:51:01;;;;;;;2.33;1.38;;;16.80;62.20;;;;;;5016104;28;20099;-69
2021/08/07 11:53:29;;;;;;;1.70;1.55;;;16.80;62.10;;;;;;5028416;28;20100;-69
2021/08/07 11:56:14;;;;;;;2.38;1.38;;;16.70;62.60;;;;;;5028020;28;20548;-70
2021/08/07 11:59:10;;;;;;;2.42;1.30;;;16.70;62.30;;;;;;5029171;28;20096;-65
2021/08/07 12:01:39;;;;;;;5.10;1.42;;;16.70;62.40;;;;;;5015296;28;20060;-69
2021/08/07 12:04:07;;;;;;;1.83;1.30;;;16.70;62.50;;;;;;5026871;28;20391;-69
2021/08/07 12:06:37;;;;;;;2.50;1.30;;;16.70;62.60;;;;;;5027976;28;20022;-69
2021/08/07 12:09:13;;;;;;;2.38;1.40;;;16.60;62.60;;;;;;5028321;28;20021;-67
2021/08/07 12:11:43;;;;;;;5.30;1.60;;;16.60;62.50;;;;;;5027341;28;20073;-72
2021/08/07 12:14:26;;;;;;;2.38;1.80;;;16.60;62.60;;;;;;5027906;28;20041;-67
2021/08/07 12:16:53;;;;;;;1.65;1.20;;;16.60;62.60;;;;;;5028184;28;20072;-66
2021/08/07 12:19:22;;;;;;;2.35;1.60;;;16.60;62.80;;;;;;5027334;28;20034;-68
2021/08/07 12:21:50;;;;;;;4.70;1.50;;;16.60;62.90;;;;;;5027711;28;20470;-68
2021/08/07 12:24:23;;;;;;;3.42;1.35;;;16.50;62.80;;;;;;5029987;28;20817;-71
2021/08/07 12:26:59;;;;;;;2.10;1.40;;;16.50;63.00;;;;;;5031609;28;20040;-69
2021/08/07 12:29:30;;;;;;;2.70;1.58;;;16.50;63.00;;;;;;5031389;28;20388;-70
2021/08/07 12:31:59;;;;;;;3.53;1.38;;;16.50;63.20;;;;;;5031088;28;20056;-71
2021/08/07 12:34:39;;;;;;;1.83;1.20;;;16.50;63.20;;;;;;5030985;28;20573;-70
2021/08/07 12:37:10;;;;;;;2.28;1.38;;;16.50;63.20;;;;;;4990989;28;20057;-71
2021/08/07 12:39:57;;;;;;;2.77;1.37;;;16.40;63.20;;;;;;4992018;28;20426;-68
2021/08/07 12:42:27;;;;;;;1.92;1.20;;;16.40;63.30;;;;;;4991699;28;20066;-70
2021/08/07 12:45:13;;;;;;;2.22;1.10;;;16.40;63.30;;;;;;4993558;28;20057;-70
2021/08/07 12:47:41;;;;;;;1.17;1.00;;;16.40;63.40;;;;;;4993009;28;20448;-70
2021/08/07 12:50:21;;;;;;;2.85;0.98;;;16.40;63.40;;;;;;4991551;28;20018;-66
2021/08/07 12:52:58;;;;;;;3.38;1.10;;;16.40;63.50;;;;;;4991441;28;20474;-70
2021/08/07 12:55:27;;;;;;;1.33;1.02;;;16.40;63.50;;;;;;4991869;28;20400;-68
2021/08/07 12:58:14;;;;;;;2.63;1.33;;;16.40;63.50;;;;;;4995550;28;20037;-68
2021/08/07 13:00:42;;;;;;;1.17;0.80;;;16.40;63.50;;;;;;5010518;28;20033;-68